Create Custom Reports and Graphics: Custom Report

Latest Observations

Map

15 Minute Data

North

Latest Observations

15 Minute Data | America/Los_Angeles
as of 1/15/19 10:31 PM PST
Station Date Time Temp (°F) Dew Pt (°F) RH (%) Wind Dir (°) Wind Spd (mph) Wind Gust (mph) Latest Rain (In) Daily Rain (In) Daily Min Temp (°F) Daily Max Temp (°F) Day
Cooley-Rockpile 1/15/19 2230 43.8   1.1 43.8   1.1 100 SE | 125 5.3 11.8 0.01 0.83 41.9 44.8 1/15/19
Cooley Lower Remote 1/15/19 2200 45.8   0.7 45.9   1.0 100 SE | 132 3.4 5.8 0.01 0.78 44.8 47.7 1/15/19
Rancho Alexander-Cloverdale 1/15/19 2230 48.6   2.4 48.6   2.4 100 WSW | 238 0.8 3.1 0.02 0.68 44.0 54.1 1/15/19
Ranch 38 (Cloverdale-SE) 1/15/19 2230 48.6   1.9 48.2   2.7 99 SSE | 151 7.0 12.0 0.01 0.70 46.3 52.2 1/15/19
Geyserville (HOF) 1/15/19 2230 48.7   1.4 47.9   2.4 97 SE | 129 3.0 5.4 0.02 0.60 48.2 53.7 1/15/19
Geyserville Ranch 3 1/15/19 2230 49.2   1.3 49.2   2.6 100 SE | 126 3.7 7.2 0.00 0.49 48.8 53.8 1/15/19
Ranch 40 (Geyserville-NE) 1/15/19 2230 48.7   1.4 48.1   3.3 98 SE | 140 9.7 15.4 0.00 0.46 47.0 52.3 1/15/19
Geyserville - S (Nervo Station) 1/15/19 2230 48.7   1.1 48.6   2.4 100 SSE | 153 0.0 1.4 0.00 0.47 47.9 52.5 1/15/19
Alexander Valley (PIC) 1/15/19 2230 49.3   2.2 49.3   5.2 100 NE | 47 1.5 2.4 0.01 0.31 48.7 53.9 1/15/19
Lytton (RVO) 1/15/19 2230 49.1   1.3 48.3   2.2 97 ENE | 72 2.2 3.4 0.00 0.39 48.5 53.1 1/15/19
Dry Creek Valley 1/15/19 2200 49.2   1.7 49.2   2.0 100 SE | 130 2.7 4.0 0.00 0.74 47.6 51.7 1/15/19

Central

Latest Observations

15 Minute Data | America/Los_Angeles
as of 1/15/19 10:31 PM PST
Station Date Time Temp (°F) Dew Pt (°F) RH (%) Wind Dir (°) Wind Spd (mph) Wind Gust (mph) Latest Rain (In) Daily Rain (In) Daily Min Temp (°F) Daily Max Temp (°F) Day
Healdsburg - S (Sodini) 1/15/19 2230 49.6   0.0 49.2   2.4 98 ESE | 109 2.5 5.4 0.01 0.58 47.4 52.5 1/15/19
Ranch 8 (Windsor-NW) 1/15/19 2230 49.7   1.4 48.6   2.0 96 ESE | 108 2.3 5.4 0.00 0.69 47.6 52.8 1/15/19
Foothill Ranch 16 1/15/19 2230 51.2   0.5 50.8   4.9 98 SSE | 150 4.6 8.3 0.01 0.43 48.5 53.8 1/15/19
Airport Ranch 14 1/15/19 2230 50.5   1.4 50.4   4.0 100 ESE | 122 2.0 4.1 0.01 0.48 46.4 54.0 1/15/19
Garrison Ranch 12 1/15/19 2230 49.6   3.0 49.5   3.3 99 NE | 42 0.1 1.8 0.01 0.73 44.7 52.7 1/15/19
Forestville (SHO) 1/15/19 2230 49.7   1.8 49.0   3.7 97 ESE | 111 2.0 4.8 0.01 0.70 47.3 53.6 1/15/19
Ranch 30 (Forestville-NE) 1/15/19 2230 49.3   4.0 49.2   4.2 99 ESE | 113 2.9 5.2 0.00 0.73 43.8 52.0 1/15/19
Robert Thomas Vineyard (RTV) 1/15/19 2230 49.7   4.3 49.0   4.3 97 N | 0 0.0 0.0 0.00 0.02 42.9 52.8 1/15/19
Crinella 1/15/19 2230 50.6   1.4 50.6   4.4 100 SE | 144 4.0 6.7 0.01 0.37 48.3 52.7 1/15/19
Denner Ranch Base 1/15/19 2230 50.2   4.4 50.1   5.5 100 SE | 126 3.5 5.7 0.01 0.46 48.6 52.9 1/15/19
Sebastopol (BTO) 1/15/19 2230 50.9   6.0 51.0   6.0 100 SE | 138 3.3 6.1 0.01 0.33 43.4 53.3 1/15/19
Hirsch Vineyards 1/15/19 2230 48.4   3.3 48.4   3.9 100 S | 169 4.1 10.3 0.12 1.00 44.4 48.7 1/15/19

South

Latest Observations

15 Minute Data | America/Los_Angeles
as of 1/15/19 10:31 PM PST
Station Date Time Temp (°F) Dew Pt (°F) RH (%) Wind Spd (mph) Wind Dir (°) Wind Gust (mph) Latest Rain (In) Daily Rain (In) Daily Min Temp (°F) Daily Max Temp (°F) Day
Lower Bennett Valley 1/14/19 1600 54.0   5.4 41.5   2.5 63   6 5.2 SE | 125 11.6   2.7 0.00 0.05 37.2 58.1 1/14/19
Kenwood (KEN) 1/15/19 2230 47.0   0.1 46.2   0.6 97   2 2.2 SE | 131 4.8   0.7 0.00 0.02 44.8 48.4 1/15/19
Sonoma Valley (Bedrock) 1/15/19 2230 48.5   0.0 48.5   3.4 100   12 0.1 S | 175 1.7   5.7 0.00 0.48 45.7 50.2 1/15/19
Osborn Preserve-SSU 1/15/19 1600 - - - 7.5 NE | 53 19.4   5.8 0.02 0.33 -40.0 -39.9 1/15/19
Arnold (Sonoma) 1/15/19 2230 49.6   0.8 49.5   2.4 99   11 0.3 E | 100 1.4   2.2 0.00 0.63 47.2 51.0 1/15/19
Schellville 1/15/19 2200 50.2   1.2 50.3   2.6 100   13 1.3 E | 96 3.1   10.1 0.00 0.58 47.9 51.1 1/15/19
Napoli (Sonoma-SE) 1/15/19 2230 51.3   0.4 50.4   4.7 97   14 2.4 ESE | 107 4.8   8.0 0.00 0.50 47.3 51.9 1/15/19
Huichica Upper 1/15/19 2230 50.7   1.4 50.7   4.8 100   12 5.9 SSW | 208 7.9   9.2 - - 47.3 51.1 1/15/19
Huichica-Carneros 1/15/19 2230 50.7   1.0 50.8   4.5 100   13 1.2 SSW | 200 6.0   0.6 0.00 0.58 48.2 51.3 1/15/19
Frates Ranch 10 1/15/19 2230 50.3   1.2 50.3   3.1 100   7 0.3 E | 89 1.7   6.1 0.00 0.28 47.5 50.5 1/15/19
Sleepy Hollow-Lakeville 1/15/19 2230 52.3   3.0 51.8   4.9 98   7 4.4 SSE | 168 6.6   6.6 0.01 0.98 47.5 52.6 1/15/19